Time;durP1;ratioP1;P1;durP2;ratioP2;P2;SDS_P1;SDS_P2;PMS_P1;PMS_P2;Temp;Humidity;BMP_temperature;BMP_pressure;BME280_temperature;BME280_humidity;BME280_pressure;Samples;Min_cycle;Max_cycle;Signal;HPM_P1;HPM_P2
2022/10/24 00:00:14;;;;;;;4.05;0.80;;;;;;;12.44;79.67;98001.78;5102471;27;20101;-51
2022/10/24 00:02:41;;;;;;;6.97;1.05;;;;;;;12.45;79.27;98003.44;5104008;28;20139;-52
2022/10/24 00:05:12;;;;;;;5.93;0.90;;;;;;;12.44;78.78;97997.44;5102594;28;20050;-53
2022/10/24 00:07:39;;;;;;;8.35;1.20;;;;;;;12.42;78.47;97998.38;5104994;27;20101;-48
2022/10/24 00:10:07;;;;;;;6.45;1.15;;;;;;;12.43;79.31;98005.28;5105410;27;20055;-52
2022/10/24 00:12:34;;;;;;;8.60;1.23;;;;;;;12.41;78.51;97991.50;5071964;27;20039;-54
2022/10/24 00:15:01;;;;;;;9.23;1.08;;;;;;;12.40;79.56;97995.03;5107902;27;20063;-52
2022/10/24 00:17:27;;;;;;;7.35;1.23;;;;;;;12.39;79.52;97993.34;5101700;27;20133;-51
2022/10/24 00:19:54;;;;;;;11.43;1.67;;;;;;;12.39;79.43;97996.78;5100533;27;20478;-51
2022/10/24 00:22:21;;;;;;;8.93;1.38;;;;;;;12.39;78.36;97990.75;5104555;27;20529;-54
2022/10/24 00:24:47;;;;;;;7.75;1.35;;;;;;;12.40;78.82;97989.84;5108214;27;21209;-53
2022/10/24 00:27:14;;;;;;;17.50;1.27;;;;;;;12.39;79.05;97983.78;5105276;27;20134;-50
2022/10/24 00:29:41;;;;;;;5.95;1.25;;;;;;;12.39;78.35;97990.75;5087216;28;20574;-50
2022/10/24 00:32:08;;;;;;;8.88;1.15;;;;;;;12.38;79.02;97986.44;5108574;27;20050;-47
2022/10/24 00:34:34;;;;;;;5.28;0.98;;;;;;;12.37;79.38;97984.78;5104009;27;20142;-52
2022/10/24 00:37:01;;;;;;;2.80;0.95;;;;;;;12.37;79.59;97982.19;5106236;27;20126;-52
2022/10/24 00:39:28;;;;;;;8.73;1.38;;;;;;;12.34;78.19;97981.38;5106263;27;20040;-54
2022/10/24 00:41:57;;;;;;;5.68;1.02;;;;;;;12.31;78.21;97991.94;5103391;27;20086;-51
2022/10/24 00:44:31;;;;;;;8.82;1.52;;;;;;;12.28;78.52;97989.47;5087340;28;20166;-52
2022/10/24 00:47:03;;;;;;;7.00;1.10;;;;;;;12.26;78.84;97993.03;5104988;27;20142;-48
2022/10/24 00:49:43;;;;;;;8.18;1.10;;;;;;;12.20;78.97;97986.34;5105978;28;20074;-50
2022/10/24 00:52:13;;;;;;;8.27;1.98;;;;;;;12.18;78.64;97990.75;5107050;27;20126;-50
2022/10/24 00:54:40;;;;;;;14.02;2.53;;;;;;;12.16;78.90;97992.59;5107429;27;20043;-54
2022/10/24 00:57:21;;;;;;;6.13;1.80;;;;;;;12.14;78.89;97989.19;5104948;27;20044;-53
2022/10/24 00:59:53;;;;;;;12.52;1.75;;;;;;;12.18;79.78;97993.34;5104288;27;20072;-51
2022/10/24 01:02:20;;;;;;;13.30;1.83;;;;;;;12.20;78.68;97988.94;5104561;27;20043;-51
2022/10/24 01:04:47;;;;;;;8.38;2.70;;;;;;;12.22;79.59;97987.09;5102566;27;20502;-51
2022/10/24 01:10:10;;;;;;;9.10;2.88;;;;;;;12.23;78.76;97990.56;5093407;27;20209;-50
2022/10/24 01:26:40;;;;;;;13.85;3.00;;;;;;;12.45;79.98;97988.72;5077507;27;20129;-54
2022/10/24 01:37:24;;;;;;;11.95;3.08;;;;;;;12.48;79.01;98005.91;5072763;27;20124;-47
2022/10/24 01:39:59;;;;;;;16.65;2.78;;;;;;;12.50;79.23;98004.09;5050444;28;20431;-55
2022/10/24 01:42:29;;;;;;;11.07;3.15;;;;;;;12.51;80.24;98013.59;5040309;28;20536;-51
2022/10/24 01:45:00;;;;;;;11.90;3.47;;;;;;;12.52;79.16;98010.06;5039656;28;20140;-54
2022/10/24 01:47:33;;;;;;;13.30;3.72;;;;;;;12.52;80.11;98012.66;5036847;28;20547;-51
2022/10/24 01:50:04;;;;;;;10.70;3.33;;;;;;;12.55;80.31;98014.28;5051519;28;20132;-54
2022/10/24 01:52:36;;;;;;;13.50;3.60;;;;;;;12.56;79.40;98011.63;5039251;28;20488;-51
2022/10/24 01:55:04;;;;;;;15.85;3.40;;;;;;;12.57;80.36;98013.28;5037502;28;20566;-47
2022/10/24 01:57:33;;;;;;;9.98;3.35;;;;;;;12.57;78.85;98013.28;5038443;28;20075;-50
2022/10/24 02:00:00;;;;;;;10.00;3.10;;;;;;;12.56;80.28;98019.41;5035765;28;20053;-50
2022/10/24 02:02:32;;;;;;;10.77;3.33;;;;;;;12.57;79.66;98018.50;5037811;28;20126;-51
2022/10/24 02:05:10;;;;;;;15.00;3.13;;;;;;;12.55;80.08;98015.13;5040977;28;20076;-51
2022/10/24 02:07:40;;;;;;;12.73;3.25;;;;;;;12.56;80.50;98024.59;5038149;28;20221;-50
2022/10/24 02:10:29;;;;;;;13.50;3.20;;;;;;;12.48;79.89;98021.50;5038644;28;21137;-53
2022/10/24 02:13:02;;;;;;;7.82;2.40;;;;;;;12.52;79.66;98025.66;5022774;28;20132;-53
2022/10/24 02:15:35;;;;;;;8.43;2.85;;;;;;;12.51;79.33;98030.91;5038036;28;20125;-53
2022/10/24 02:18:01;;;;;;;8.00;2.70;;;;;;;12.51;80.28;98034.34;5041321;28;20048;-53
2022/10/24 02:20:49;;;;;;;12.98;3.17;;;;;;;12.50;79.63;98032.66;5037508;28;20069;-53
2022/10/24 02:23:25;;;;;;;12.50;3.00;;;;;;;12.49;80.34;98030.97;5036877;28;20131;-53
2022/10/24 02:25:56;;;;;;;15.38;3.45;;;;;;;12.51;79.65;98033.50;5036417;28;20049;-57
2022/10/24 02:28:28;;;;;;;9.75;3.20;;;;;;;12.51;79.54;98034.34;5036464;28;20564;-53
2022/10/24 02:31:08;;;;;;;10.90;3.28;;;;;;;12.46;79.84;98031.94;5038445;28;20057;-46
2022/10/24 02:33:38;;;;;;;9.50;3.03;;;;;;;12.51;79.40;98039.56;5040290;28;20111;-49
2022/10/24 02:36:09;;;;;;;10.80;2.53;;;;;;;12.52;79.21;98050.75;5035083;28;20052;-53
2022/10/24 02:38:40;;;;;;;13.52;3.30;;;;;;;12.51;79.64;98043.88;5036427;28;20045;-54
2022/10/24 02:41:11;;;;;;;11.57;3.28;;;;;;;12.50;80.34;98058.59;5038781;28;20128;-49
2022/10/24 02:43:40;;;;;;;8.95;3.22;;;;;;;12.50;79.78;98058.59;5038912;28;20124;-49
2022/10/24 02:46:09;;;;;;;12.70;3.25;;;;;;;12.49;80.40;98056.94;5038440;28;20049;-50
2022/10/24 02:48:44;;;;;;;14.13;3.28;;;;;;;12.48;80.35;98065.63;5024892;28;20049;-49
2022/10/24 02:51:13;;;;;;;17.98;2.85;;;;;;;12.46;80.50;98068.28;5022858;28;20080;-53
2022/10/24 02:53:39;;;;;;;9.30;2.72;;;;;;;12.43;80.13;98067.59;5025256;28;20140;-51
2022/10/24 02:56:06;;;;;;;13.65;3.17;;;;;;;12.41;79.60;98069.41;5022890;28;20072;-52
2022/10/24 02:58:33;;;;;;;9.65;3.42;;;;;;;12.39;79.50;98071.22;5026631;28;20133;-52
2022/10/24 03:00:59;;;;;;;13.07;3.40;;;;;;;12.38;80.65;98074.72;5023394;28;20041;-50
2022/10/24 03:03:26;;;;;;;11.65;3.50;;;;;;;12.36;80.10;98074.78;5024411;28;20072;-53
2022/10/24 03:05:53;;;;;;;12.90;3.85;;;;;;;12.36;79.84;98079.97;5023299;28;20551;-50
2022/10/24 03:08:19;;;;;;;10.05;2.97;;;;;;;12.34;79.65;98085.22;5025530;28;20115;-48
2022/10/24 03:10:46;;;;;;;16.55;3.78;;;;;;;12.34;80.31;98085.22;5024907;28;20150;-50
2022/10/24 03:13:12;;;;;;;13.27;4.07;;;;;;;12.34;80.09;98087.00;5026062;28;20052;-52
2022/10/24 03:15:39;;;;;;;11.43;3.95;;;;;;;12.34;79.70;98095.59;5025802;28;20040;-53
2022/10/24 03:18:06;;;;;;;18.00;3.75;;;;;;;12.34;79.59;98106.00;5020094;28;20049;-51
2022/10/24 03:20:33;;;;;;;12.55;4.28;;;;;;;12.32;80.02;98102.63;5019101;28;20048;-51
2022/10/24 03:22:59;;;;;;;13.77;3.30;;;;;;;12.30;80.49;98109.63;5022521;28;21105;-55
2022/10/24 03:25:26;;;;;;;17.05;4.22;;;;;;;12.30;80.01;98117.41;5028058;28;20125;-50
2022/10/24 03:27:53;;;;;;;18.70;5.10;;;;;;;12.30;79.55;98114.81;5022192;28;20045;-49
2022/10/24 03:30:19;;;;;;;16.90;4.57;;;;;;;12.28;80.86;98116.63;5023492;28;20141;-53
2022/10/24 03:32:46;;;;;;;19.75;5.03;;;;;;;12.28;79.98;98123.56;5023114;28;20132;-55
2022/10/24 03:35:13;;;;;;;18.73;5.50;;;;;;;12.26;80.09;98128.81;5026320;28;20053;-50
2022/10/24 03:37:40;;;;;;;17.50;4.25;;;;;;;12.26;79.76;98125.41;5021831;28;21486;-50
2022/10/24 03:40:08;;;;;;;18.23;4.65;;;;;;;12.26;80.51;98126.22;5023563;28;20128;-52
2022/10/24 03:42:35;;;;;;;17.52;5.60;;;;;;;12.24;79.63;98125.47;5025418;28;20116;-48
2022/10/24 03:45:02;;;;;;;18.75;5.18;;;;;;;12.22;80.58;98132.44;5025264;28;20515;-53
2022/10/24 03:47:29;;;;;;;16.00;5.18;;;;;;;12.23;79.97;98139.34;5024061;28;20038;-53
2022/10/24 03:49:55;;;;;;;17.77;4.53;;;;;;;12.22;80.45;98140.25;5023667;28;20049;-50
2022/10/24 03:52:22;;;;;;;16.67;5.10;;;;;;;12.22;80.59;98145.44;5023922;28;20072;-53
2022/10/24 03:54:49;;;;;;;18.02;5.40;;;;;;;12.23;79.95;98151.47;5022868;28;20128;-51
2022/10/24 03:57:15;;;;;;;16.05;5.20;;;;;;;12.23;80.38;98148.88;5021394;28;20132;-50
2022/10/24 03:59:42;;;;;;;17.55;5.18;;;;;;;12.24;80.22;98147.97;5024050;28;20053;-53
2022/10/24 04:02:09;;;;;;;17.08;4.90;;;;;;;12.24;79.86;98156.59;5024952;28;20085;-53
2022/10/24 04:04:35;;;;;;;25.30;4.68;;;;;;;12.25;80.72;98162.63;5028323;28;20049;-53
2022/10/24 04:07:04;;;;;;;21.05;4.45;;;;;;;12.24;80.64;98161.81;5024957;28;20041;-52
2022/10/24 04:09:31;;;;;;;14.70;3.97;;;;;;;12.23;81.05;98174.84;5019637;28;20656;-52
2022/10/24 04:11:57;;;;;;;16.88;3.47;;;;;;;12.26;80.10;98185.09;5024696;28;20064;-53
2022/10/24 04:14:24;;;;;;;11.82;3.38;;;;;;;12.28;80.10;98188.47;5024516;28;20160;-52
2022/10/24 04:16:51;;;;;;;12.73;2.65;;;;;;;12.28;81.02;98189.31;5021886;28;20577;-53
2022/10/24 04:19:17;;;;;;;10.27;3.50;;;;;;;12.29;81.49;98193.59;5020446;28;20123;-54
2022/10/24 04:21:46;;;;;;;13.15;3.10;;;;;;;12.30;80.76;98197.88;5023946;28;20042;-49
2022/10/24 04:24:13;;;;;;;10.73;3.03;;;;;;;12.32;80.38;98206.47;5020705;28;20708;-52
2022/10/24 04:26:40;;;;;;;9.60;3.00;;;;;;;12.31;79.93;98202.19;5023045;28;20052;-49
2022/10/24 04:29:07;;;;;;;10.07;3.53;;;;;;;12.32;80.19;98211.66;5023889;28;20151;-53
2022/10/24 04:31:33;;;;;;;12.20;3.47;;;;;;;12.34;80.50;98209.81;5025966;28;20049;-50
2022/10/24 04:34:01;;;;;;;10.38;3.47;;;;;;;12.36;79.94;98216.72;5020794;28;20057;-51
2022/10/24 04:36:27;;;;;;;8.45;3.92;;;;;;;12.38;80.40;98214.91;5019111;28;20073;-49
2022/10/24 04:38:55;;;;;;;12.80;4.80;;;;;;;12.38;80.12;98226.16;5022407;28;20176;-50
2022/10/24 04:41:21;;;;;;;11.50;3.97;;;;;;;12.40;81.17;98228.69;5022609;28;20118;-54
2022/10/24 04:43:48;;;;;;;11.75;4.10;;;;;;;12.41;81.67;98235.56;5018456;28;20754;-51
2022/10/24 04:46:15;;;;;;;11.38;4.72;;;;;;;12.41;81.03;98240.75;5022737;28;20057;-53
2022/10/24 04:48:41;;;;;;;14.88;4.63;;;;;;;12.42;81.41;98252.81;5022520;28;20037;-52
2022/10/24 04:51:08;;;;;;;14.82;5.13;;;;;;;12.43;80.45;98259.72;5021530;28;20139;-51
2022/10/24 04:53:35;;;;;;;13.45;4.95;;;;;;;12.44;80.46;98262.25;5017491;28;20052;-54
2022/10/24 04:56:02;;;;;;;14.15;4.53;;;;;;;12.45;80.71;98263.09;5021563;28;20111;-52
2022/10/24 04:58:29;;;;;;;16.05;5.07;;;;;;;12.46;80.71;98270.81;5019696;28;20049;-50
2022/10/24 05:00:55;;;;;;;13.15;4.95;;;;;;;12.48;81.07;98273.38;5022583;28;20125;-55
2022/10/24 05:03:22;;;;;;;12.52;4.22;;;;;;;12.49;80.57;98279.41;5021503;28;20080;-50
2022/10/24 05:05:49;;;;;;;12.98;4.70;;;;;;;12.51;81.73;98278.44;5024468;28;20083;-47
2022/10/24 05:08:16;;;;;;;17.92;4.93;;;;;;;12.54;80.63;98288.72;5020679;28;20049;-53
2022/10/24 05:10:43;;;;;;;13.95;4.38;;;;;;;12.52;81.24;98287.91;5022746;28;20075;-47
2022/10/24 05:13:10;;;;;;;10.52;3.63;;;;;;;12.52;80.85;98290.50;5022648;28;20152;-54
2022/10/24 05:15:37;;;;;;;11.80;3.80;;;;;;;12.49;81.36;98293.22;5024755;28;20144;-50
2022/10/24 05:18:04;;;;;;;12.05;3.83;;;;;;;12.52;81.65;98305.22;5021412;28;20516;-55
2022/10/24 05:20:31;;;;;;;11.90;4.40;;;;;;;12.51;80.75;98313.94;5021343;28;20855;-47
2022/10/24 05:22:57;;;;;;;12.57;3.88;;;;;;;12.51;81.14;98320.00;5022303;28;20046;-50
2022/10/24 05:25:24;;;;;;;8.07;3.40;;;;;;;12.51;80.85;98322.59;5021696;28;20659;-54
2022/10/24 05:27:51;;;;;;;9.10;3.30;;;;;;;12.53;81.05;98328.53;5021745;28;20140;-52
2022/10/24 05:30:17;;;;;;;10.70;3.55;;;;;;;12.56;81.96;98337.97;5018852;28;20164;-52
2022/10/24 05:32:44;;;;;;;10.02;3.63;;;;;;;12.54;81.81;98345.84;5019716;28;20054;-48
2022/10/24 05:35:12;;;;;;;9.65;3.88;;;;;;;12.57;81.42;98344.88;5020870;28;20096;-50
2022/10/24 05:37:39;;;;;;;9.43;3.70;;;;;;;12.56;81.58;98344.03;5024909;28;20456;-53
2022/10/24 05:40:07;;;;;;;9.98;3.25;;;;;;;12.59;80.88;98361.22;5020398;28;20814;-51
2022/10/24 05:42:34;;;;;;;9.38;4.28;;;;;;;12.58;81.73;98357.81;5021169;28;20148;-51
2022/10/24 05:45:01;;;;;;;12.90;3.90;;;;;;;12.59;80.32;98364.69;5021805;28;20496;-50
2022/10/24 05:47:27;;;;;;;12.55;3.92;;;;;;;12.60;81.54;98371.56;5023433;28;20080;-49
2022/10/24 05:49:54;;;;;;;11.73;4.53;;;;;;;12.60;81.04;98375.94;5024964;28;20051;-50
2022/10/24 05:52:21;;;;;;;8.73;3.85;;;;;;;12.62;81.38;98381.03;5020406;28;20056;-48
2022/10/24 05:54:47;;;;;;;10.20;4.03;;;;;;;12.63;80.97;98385.34;5023377;28;20120;-50
2022/10/24 05:57:31;;;;;;;10.02;3.72;;;;;;;12.63;80.65;98390.53;5022517;28;20056;-49
2022/10/24 05:59:58;;;;;;;7.97;3.85;;;;;;;12.63;81.36;98386.19;5020053;28;20132;-52
2022/10/24 06:02:25;;;;;;;8.07;3.47;;;;;;;12.64;80.62;98393.09;5019424;28;20072;-49
2022/10/24 06:04:53;;;;;;;7.97;3.53;;;;;;;12.65;81.04;98399.09;5021998;28;20049;-48
2022/10/24 06:07:20;;;;;;;8.27;2.90;;;;;;;12.65;81.67;98396.50;5023132;28;20616;-49
2022/10/24 06:09:47;;;;;;;11.82;3.67;;;;;;;12.65;80.97;98399.09;5014832;28;20049;-51
2022/10/24 06:12:13;;;;;;;6.43;3.10;;;;;;;12.65;80.87;98405.16;5023989;28;20580;-50
2022/10/24 06:14:40;;;;;;;6.07;2.72;;;;;;;12.65;81.46;98405.16;5025157;28;20132;-52
2022/10/24 06:17:08;;;;;;;6.40;2.45;;;;;;;12.66;81.32;98411.22;5021850;28;20076;-53
2022/10/24 06:19:35;;;;;;;10.15;2.95;;;;;;;12.66;81.80;98413.81;5018983;28;20536;-52
2022/10/24 06:22:04;;;;;;;8.70;2.85;;;;;;;12.67;80.85;98420.69;5020593;28;20045;-49
2022/10/24 06:24:34;;;;;;;7.38;3.10;;;;;;;12.66;80.96;98421.59;5020094;28;20095;-54
2022/10/24 06:27:01;;;;;;;5.13;2.55;;;;;;;12.64;81.92;98429.44;5026828;28;20045;-49
2022/10/24 06:29:28;;;;;;;7.90;2.53;;;;;;;12.65;81.30;98430.28;5025843;28;20046;-49
2022/10/24 06:31:54;;;;;;;6.97;2.70;;;;;;;12.65;81.73;98435.47;5026299;28;20080;-51
2022/10/24 06:34:21;;;;;;;6.20;2.13;;;;;;;12.65;81.78;98451.91;5023963;28;20053;-49
2022/10/24 06:36:48;;;;;;;8.77;3.03;;;;;;;12.67;80.60;98451.88;5020842;28;20056;-51
2022/10/24 06:39:14;;;;;;;6.32;2.63;;;;;;;12.64;81.52;98444.19;5022862;28;20140;-49
2022/10/24 06:41:41;;;;;;;5.75;2.45;;;;;;;12.63;80.33;98452.88;5017163;28;20081;-50
2022/10/24 06:44:07;;;;;;;4.63;1.92;;;;;;;12.63;81.40;98463.28;5023774;28;20052;-52
2022/10/24 06:46:37;;;;;;;5.60;1.95;;;;;;;12.63;81.34;98465.88;5025517;28;20037;-49
2022/10/24 06:49:03;;;;;;;7.95;2.78;;;;;;;12.59;81.18;98463.38;5020577;28;20117;-54
2022/10/24 06:51:30;;;;;;;4.25;1.48;;;;;;;12.60;80.94;98475.44;5027580;28;20139;-52
2022/10/24 06:53:57;;;;;;;5.57;1.70;;;;;;;12.60;80.67;98475.44;5020017;28;20057;-52
2022/10/24 06:56:24;;;;;;;5.30;2.03;;;;;;;12.59;81.78;98478.09;5023430;28;20139;-49
2022/10/24 06:58:51;;;;;;;7.28;1.80;;;;;;;12.58;80.86;98477.28;5024590;28;20525;-49
2022/10/24 07:01:21;;;;;;;7.38;1.92;;;;;;;12.58;80.75;98482.47;5024021;28;20117;-52
2022/10/24 07:03:49;;;;;;;4.97;1.77;;;;;;;12.58;80.70;98490.25;5022431;28;20084;-51
2022/10/24 07:06:27;;;;;;;7.25;1.98;;;;;;;12.57;81.23;98491.13;5016857;28;20562;-50
2022/10/24 07:08:56;;;;;;;4.53;1.73;;;;;;;12.57;80.36;98501.53;5021803;28;20171;-53
2022/10/24 07:11:24;;;;;;;6.07;1.65;;;;;;;12.58;80.94;98508.44;5021231;28;20076;-51
2022/10/24 07:13:50;;;;;;;6.32;1.42;;;;;;;12.60;80.73;98514.41;5023171;28;20049;-49
2022/10/24 07:16:20;;;;;;;2.92;1.50;;;;;;;12.63;80.90;98520.41;5020187;28;20555;-52
2022/10/24 07:18:47;;;;;;;6.85;1.85;;;;;;;12.64;81.22;98527.28;5021138;28;20045;-53
2022/10/24 07:21:18;;;;;;;6.50;1.83;;;;;;;12.66;81.92;98521.13;5021244;28;20137;-48
2022/10/24 07:23:44;;;;;;;4.78;1.63;;;;;;;12.69;81.55;98525.38;5017249;28;20064;-49
2022/10/24 07:26:15;;;;;;;6.60;1.45;;;;;;;12.69;80.94;98538.34;5015826;28;20141;-54
2022/10/24 07:28:45;;;;;;;4.35;1.33;;;;;;;12.69;81.14;98539.22;5024488;28;20063;-52
2022/10/24 07:31:15;;;;;;;5.72;1.55;;;;;;;12.69;81.66;98551.34;5020512;28;20046;-49
2022/10/24 07:33:42;;;;;;;2.72;1.33;;;;;;;12.69;81.59;98551.34;5016030;28;20123;-51
2022/10/24 07:36:09;;;;;;;4.03;1.77;;;;;;;12.71;81.61;98554.75;5016846;28;20234;-47
2022/10/24 07:38:36;;;;;;;5.47;1.63;;;;;;;12.71;81.86;98559.94;5023846;28;20041;-48
2022/10/24 07:41:04;;;;;;;3.83;1.55;;;;;;;12.72;81.36;98557.28;5023987;28;20188;-50
2022/10/24 07:43:31;;;;;;;3.17;1.50;;;;;;;12.73;81.24;98560.72;5020899;28;20548;-49
2022/10/24 07:45:58;;;;;;;4.35;2.00;;;;;;;12.73;81.33;98568.50;5022190;28;20064;-50
2022/10/24 07:48:30;;;;;;;5.57;1.83;;;;;;;12.76;82.15;98563.22;5021684;28;20041;-49
2022/10/24 07:50:56;;;;;;;3.45;1.42;;;;;;;12.78;81.03;98571.81;5021663;28;20136;-50
2022/10/24 07:53:26;;;;;;;5.03;1.50;;;;;;;12.77;81.65;98567.50;5018977;28;20088;-51
2022/10/24 07:55:53;;;;;;;4.45;1.50;;;;;;;12.80;81.62;98575.19;5022087;28;20076;-52
2022/10/24 07:58:20;;;;;;;10.90;1.58;;;;;;;12.83;81.09;98585.47;5023977;28;20145;-49
2022/10/24 08:00:46;;;;;;;4.93;1.60;;;;;;;12.87;81.32;98586.19;5025551;28;20072;-51
2022/10/24 08:03:13;;;;;;;3.85;1.58;;;;;;;12.90;81.57;98582.69;5023907;28;20053;-50
2022/10/24 08:05:40;;;;;;;4.88;1.45;;;;;;;12.90;81.32;98595.66;5018603;28;20128;-49
2022/10/24 08:08:07;;;;;;;36.22;15.98;;;;;;;12.91;81.61;98597.34;5020543;28;20132;-49
2022/10/24 08:10:53;;;;;;;10.10;6.70;;;;;;;12.92;81.05;98593.84;5025203;28;20053;-46
2022/10/24 08:13:20;;;;;;;10.55;6.65;;;;;;;12.92;80.98;98604.25;5023436;28;20468;-51
2022/10/24 08:15:47;;;;;;;8.50;3.05;;;;;;;12.95;81.31;98610.19;5024384;28;20059;-55
2022/10/24 08:18:13;;;;;;;3.83;1.83;;;;;;;12.96;81.42;98611.03;5023205;28;20072;-50
2022/10/24 08:20:40;;;;;;;4.05;0.98;;;;;;;12.96;81.47;98611.03;5024932;28;20421;-55
2022/10/24 08:23:07;;;;;;;5.55;2.22;;;;;;;12.96;80.92;98617.06;5022580;28;20104;-51
2022/10/24 08:25:34;;;;;;;4.93;2.53;;;;;;;12.98;81.00;98619.63;5025242;28;20075;-51
2022/10/24 08:28:00;;;;;;;8.43;2.65;;;;;;;12.97;81.43;98617.94;5024409;28;20666;-54
2022/10/24 08:30:32;;;;;;;9.68;3.45;;;;;;;12.99;80.75;98616.13;5024463;28;20132;-52
2022/10/24 08:32:58;;;;;;;7.03;2.03;;;;;;;13.01;81.18;98616.91;5023007;28;20053;-54
2022/10/24 08:35:25;;;;;;;5.45;2.63;;;;;;;13.01;80.82;98619.53;5024155;28;20045;-54
2022/10/24 08:37:51;;;;;;;6.75;2.38;;;;;;;13.03;81.04;98622.91;5024048;28;20072;-48
2022/10/24 08:40:19;;;;;;;8.80;3.15;;;;;;;13.04;81.06;98634.16;5024137;28;20153;-51
2022/10/24 08:42:47;;;;;;;7.30;3.08;;;;;;;13.06;81.57;98632.31;5023469;28;20049;-48
2022/10/24 08:45:24;;;;;;;6.07;2.10;;;;;;;13.07;81.40;98634.88;5020690;28;20052;-54
2022/10/24 08:48:00;;;;;;;6.18;2.13;;;;;;;13.08;80.70;98636.56;5019748;28;20076;-53
2022/10/24 08:50:29;;;;;;;;;;;;;;;13.00;81.66;98642.97;5024863;28;20128;-50
2022/10/24 08:53:10;;;;;;;3.10;1.85;;;;;;;13.13;81.19;98648.56;5021285;28;20023;-48
2022/10/24 08:55:41;;;;;;;5.82;1.88;;;;;;;13.21;81.49;98654.34;5020780;28;20468;-50
2022/10/24 09:01:00;;;;;;;6.38;1.70;;;;;;;13.36;80.96;98661.59;5029148;27;20407;-53
2022/10/24 09:03:46;;;;;;;3.90;1.38;;;;;;;13.39;80.95;98664.97;5002259;28;20061;-49
2022/10/24 09:06:25;;;;;;;5.07;2.45;;;;;;;13.47;80.85;98673.31;5009932;28;20714;-49
2022/10/24 09:14:33;;;;;;;4.25;2.35;;;;;;;13.70;81.13;98664.72;5061074;27;20399;-48
2022/10/24 09:17:21;;;;;;;3.10;1.85;;;;;;;13.85;80.67;98673.69;5008636;27;20135;-51
2022/10/24 09:19:52;;;;;;;6.57;1.70;;;;;;;14.04;80.34;98677.31;5000700;28;20058;-53
2022/10/24 09:22:21;;;;;;;4.25;1.88;;;;;;;14.22;80.19;98675.75;5000463;28;20054;-53
2022/10/24 09:25:00;;;;;;;5.22;1.83;;;;;;;14.60;81.13;98691.59;4999396;28;20080;-48
2022/10/24 09:30:04;;;;;;;4.35;1.40;;;;;;;15.08;79.95;98687.91;4991379;28;20038;-50
2022/10/24 09:32:34;;;;;;;5.28;1.70;;;;;;;15.16;79.42;98694.50;4998082;28;20138;-47
2022/10/24 09:35:05;;;;;;;5.07;1.08;;;;;;;15.40;79.84;98696.94;5000340;28;20049;-52
2022/10/24 09:48:16;;;;;;;3.50;1.98;;;;;;;15.74;78.72;98725.03;5054842;27;20407;-53
2022/10/24 09:50:44;;;;;;;3.47;2.28;;;;;;;15.65;77.79;98732.38;5021455;28;20052;-52
2022/10/24 09:53:32;;;;;;;3.05;2.05;;;;;;;15.66;78.24;98739.28;5018629;28;20416;-54
2022/10/24 09:56:08;;;;;;;7.40;2.88;;;;;;;16.02;78.63;98734.25;5013434;28;20048;-53
2022/10/24 09:58:35;;;;;;;3.45;2.33;;;;;;;16.14;78.33;98733.66;5018578;28;20136;-52
2022/10/24 10:03:42;;;;;;;4.30;1.70;;;;;;;16.00;77.85;98736.91;5040880;28;20395;-49
2022/10/24 10:06:19;;;;;;;3.83;1.25;;;;;;;15.90;77.07;98743.44;5029302;28;20054;-48
2022/10/24 10:08:52;;;;;;;6.13;1.10;;;;;;;15.81;78.14;98735.13;5000281;28;20510;-51
2022/10/24 10:11:25;;;;;;;4.78;1.08;;;;;;;15.74;78.04;98736.31;4998614;28;20077;-52
2022/10/24 10:13:54;;;;;;;1.48;0.70;;;;;;;15.68;77.59;98737.44;5014492;28;20553;-50
2022/10/24 10:21:59;;;;;;;3.45;0.80;;;;;;;15.45;77.86;98740.22;5029684;28;20395;-52
2022/10/24 10:24:44;;;;;;;6.00;0.80;;;;;;;15.37;77.59;98738.78;5002905;28;20498;-52
2022/10/24 10:35:32;;;;;;;3.85;1.55;;;;;;;15.23;77.77;98749.84;5060844;28;20382;-54
2022/10/24 10:40:57;;;;;;;3.22;0.90;;;;;;;15.22;77.91;98749.91;5019954;28;20398;-50
2022/10/24 10:49:17;;;;;;;3.67;1.15;;;;;;;15.21;77.64;98769.06;5057296;27;20414;-52
2022/10/24 11:00:53;;;;;;;2.72;0.52;;;;;;;15.49;77.63;98773.09;5050527;27;20421;-50
2022/10/24 11:12:21;;;;;;;5.95;1.58;;;;;;;16.02;78.14;98773.41;5056364;27;20766;-53
2022/10/24 11:15:01;;;;;;;2.45;1.05;;;;;;;16.17;77.52;98787.53;5020646;28;20170;-49
2022/10/24 11:17:36;;;;;;;4.88;0.70;;;;;;;16.34;77.38;98791.13;5025000;28;20622;-51
2022/10/24 11:22:44;;;;;;;4.93;0.85;;;;;;;16.47;75.96;98786.16;5071611;27;20751;-54
2022/10/24 11:28:06;;;;;;;5.93;2.90;;;;;;;16.41;74.95;98798.59;5030743;28;20944;-49
2022/10/24 11:30:44;;;;;;;4.10;1.85;;;;;;;16.43;75.54;98796.78;4987557;28;20164;-49
2022/10/24 11:33:16;;;;;;;4.38;2.55;;;;;;;16.40;74.31;98799.53;5008550;28;20127;-52
2022/10/24 11:36:00;;;;;;;4.35;2.17;;;;;;;16.32;74.10;98804.28;5000940;28;20138;-48
2022/10/24 11:38:29;;;;;;;4.78;2.38;;;;;;;16.25;74.52;98808.09;5000760;28;20082;-48
2022/10/24 11:41:14;;;;;;;3.88;2.20;;;;;;;16.18;73.82;98797.91;4986902;28;22072;-49
2022/10/24 11:43:43;;;;;;;4.35;2.03;;;;;;;16.08;73.69;98801.88;4997573;28;20053;-52
2022/10/24 11:48:52;;;;;;;6.25;0.63;;;;;;;16.17;74.76;98801.44;5022289;28;20905;-48
2022/10/24 11:51:27;;;;;;;3.80;0.93;;;;;;;16.29;74.67;98814.84;5011460;28;20531;-52
2022/10/24 11:53:58;;;;;;;5.60;1.35;;;;;;;16.33;74.60;98811.19;5001490;28;20137;-49
2022/10/24 11:56:40;;;;;;;4.43;0.95;;;;;;;16.35;74.07;98809.31;5004406;28;20505;-51
2022/10/24 11:59:13;;;;;;;4.47;1.05;;;;;;;16.43;74.19;98803.75;5004093;28;20636;-50
2022/10/24 12:07:32;;;;;;;5.82;1.00;;;;;;;16.39;73.55;98823.97;5003335;28;21168;-52
2022/10/24 12:13:32;;;;;;;5.40;1.20;;;;;;;16.26;71.95;98820.22;5040624;27;20412;-54
2022/10/24 12:16:30;;;;;;;2.58;0.82;;;;;;;16.23;72.65;98825.56;5036161;28;20051;-53
2022/10/24 12:19:00;;;;;;;3.40;1.25;;;;;;;16.28;73.51;98823.63;5069448;28;20040;-49
2022/10/24 12:21:36;;;;;;;5.75;0.90;;;;;;;16.33;73.00;98821.63;5073199;28;20494;-53
2022/10/24 12:24:03;;;;;;;4.45;1.42;;;;;;;16.41;73.53;98814.28;5056177;28;20045;-50
2022/10/24 12:26:32;;;;;;;7.32;1.02;;;;;;;16.55;73.36;98816.25;5053667;28;20127;-50
2022/10/24 12:29:01;;;;;;;7.80;1.05;;;;;;;16.62;72.42;98819.41;5058919;28;20563;-53
2022/10/24 12:31:31;;;;;;;6.32;0.80;;;;;;;16.64;72.52;98819.31;5055092;28;20120;-52
2022/10/24 12:39:45;;;;;;;6.38;1.10;;;;;;;16.62;72.82;98822.00;5060004;27;20408;-51
2022/10/24 12:58:37;;;;;;;3.90;0.80;;;;;;;16.26;72.39;98836.75;5042883;28;20484;-47
2022/10/24 13:17:38;;;;;;;2.90;0.80;;;;;;;15.96;71.71;98838.97;5071144;27;20760;-46
2022/10/24 13:20:23;;;;;;;3.72;0.85;;;;;;;15.88;72.11;98842.72;5039588;28;20053;-52
2022/10/24 13:23:00;;;;;;;3.67;0.57;;;;;;;15.87;71.78;98843.66;5046767;28;20045;-51
2022/10/24 13:25:34;;;;;;;6.75;1.35;;;;;;;15.92;72.58;98849.53;5062381;28;20037;-54
2022/10/24 13:36:18;;;;;;;4.32;1.95;;;;;;;16.08;72.52;98843.66;5006411;28;20404;-48
2022/10/24 13:41:33;;;;;;;6.25;2.13;;;;;;;16.38;70.73;98844.94;5041950;27;20417;-51
2022/10/24 13:44:08;;;;;;;7.80;1.27;;;;;;;16.22;71.57;98844.78;5004375;28;20141;-46
2022/10/24 13:47:14;;;;;;;3.55;1.23;;;;;;;16.16;72.59;98854.59;5009772;28;20129;-50
2022/10/24 13:52:25;;;;;;;2.67;0.98;;;;;;;16.20;71.93;98847.47;5119906;27;20916;-52
2022/10/24 13:54:59;;;;;;;2.65;0.80;;;;;;;16.20;72.05;98850.06;5077170;28;20135;-52
2022/10/24 13:57:32;;;;;;;5.63;1.23;;;;;;;16.24;72.04;98842.97;5074618;28;20045;-50
2022/10/24 14:00:03;;;;;;;1.58;0.82;;;;;;;16.26;72.10;98843.72;5057348;28;20143;-47
2022/10/24 14:02:37;;;;;;;3.88;1.33;;;;;;;16.21;71.50;98845.72;5064106;28;20048;-49
2022/10/24 14:05:05;;;;;;;1.92;0.70;;;;;;;16.12;71.73;98845.22;5076378;28;20044;-50
2022/10/24 14:07:33;;;;;;;5.88;2.00;;;;;;;16.06;71.85;98845.47;5077422;28;20056;-53
2022/10/24 14:10:12;;;;;;;3.88;1.10;;;;;;;15.99;71.63;98851.91;5081854;28;20113;-48
2022/10/24 14:12:40;;;;;;;2.58;1.20;;;;;;;15.98;72.24;98851.06;5078094;28;20087;-52
2022/10/24 14:15:17;;;;;;;6.75;2.53;;;;;;;15.92;71.74;98849.53;5076831;28;20143;-50
2022/10/24 14:17:54;;;;;;;2.60;0.90;;;;;;;15.93;72.21;98848.63;5075829;28;20048;-53
2022/10/24 14:20:25;;;;;;;3.38;0.75;;;;;;;15.97;72.08;98845.91;5076563;28;20131;-51
2022/10/24 14:22:52;;;;;;;10.23;3.10;;;;;;;15.97;72.51;98851.13;5077584;28;20131;-49